Nederlandse vliegveldverwachtingen (TAF)

Luchtvaartmeteorologische informatie voor operationeel gebruik en vluchtvoorbereiding is beschikbaar op www.luchtvaartmeteo.nl.

ZCZC
FC141700 EHGR     GILZE-RIJEN/GILZE-RIJEN   NLD   14 m.
TAF EHGR 141700Z NIL=

ZCZC
FC141700 EHWO     WOENSDRECHT/WOENSDRECHT   NLD   19 m.
TAF EHWO 141700Z NIL=

ZCZC
FT141700 EHEH     EINDHOVEN/EINDHOVEN   NLD   22 m.
TAF EHEH 141724Z 1418/1524 06005KT CAVOK
    BECMG 1500/1502 22009KT
    PROB40 TEMPO 1512/1518 23015G25KT 3500 SHRA TSRA SCT045CB
    BKN060=

ZCZC
FC142100 EHVK RRB VOLKEL/VOLKEL   NLD   21 m.
TAF EHVK 142100Z 1421/1509 VRB03KT CAVOK
    BECMG 1501/1503 22006KT=

ZCZC
FC142100 EHLW CCA LEEUWARDEN/LEEUWARDEN   NLD   1 m.
TAF COR EHLW 142145Z 1421/1509 07005KT CAVOK
    PROB30 TEMPO 1422/1505 12010G25KT 3500 TSRA SCT050CB=

ZCZC
FC142100 EHKD     DE KOOY/DE KOOY   NLD   1 m.
TAF EHKD 142100Z NIL=

ZCZC
FT142300 EHLE     LELYSTAD/LELYSTAD   NLD   -3 m.
TAF EHLE 142301Z 1500/1606 06005KT CAVOK
    BECMG 1503/1506 23009KT
    PROB30 TEMPO 1509/1520 18015G25KT 5000 SHRA TSRA SCT050CB
    BECMG 1518/1521 15005KT=

ZCZC
FT142300 EHAM     AMSTERDAM/SCHIPHOL   NLD   -3 m.
TAF EHAM 142301Z 1500/1606 07006KT CAVOK
    BECMG 1501/1503 23009KT
    PROB30 TEMPO 1509/1520 18015G25KT 5000 SHRA TSRA SCT050CB
    BECMG 1515/1518 16005KT=

ZCZC
FT142300 EHRD     ROTTERDAM/THE HAGUE AIRPORT   NLD   -5 m.
TAF EHRD 142301Z 1500/1606 07005KT CAVOK
    BECMG 1500/1501 23009KT
    PROB30 TEMPO 1509/1520 18015G25KT 5000 SHRA TSRA SCT050CB
    BECMG 1516/1519 17005KT=

ZCZC
FT142300 EHGG     GRONINGEN/EELDE   NLD   5 m.
TAF EHGG 142244Z 1500/1606 09005KT CAVOK
    PROB30 TEMPO 1500/1506 6000 SHRA TSRA FEW070CB
    PROB30 TEMPO 1512/1524 22015G25KT 4000 TSRA SHRA SCT050CB=

ZCZC
FT142300 EHBK     MAASTRICHT/MAASTRICHT-AACHEN   NLD   114 m.
TAF EHBK 142244Z 1500/1606 21007KT CAVOK
    PROB30 TEMPO 1512/1520 24015G25KT 5000 SHRA TSRA SCT070CB=

15/08/2022 01.30 uur LT